createdAt,value
2023-01-03T00:00:03.090Z,986.35
2023-01-03T00:01:03.042Z,986.32
2023-01-03T00:02:03.165Z,986.32
2023-01-03T00:03:03.082Z,986.46
2023-01-03T00:04:03.696Z,986.38
2023-01-03T00:05:03.143Z,986.35
2023-01-03T00:06:03.903Z,986.46
2023-01-03T00:07:02.986Z,986.52
2023-01-03T00:08:02.964Z,986.44
2023-01-03T00:09:03.945Z,986.32
2023-01-03T00:10:03.768Z,986.44
2023-01-03T00:11:02.988Z,986.44
2023-01-03T00:12:03.060Z,986.47
2023-01-03T00:13:03.052Z,986.57
2023-01-03T00:14:02.973Z,986.57
2023-01-03T00:15:03.276Z,986.44
2023-01-03T00:16:03.201Z,986.55
2023-01-03T00:17:03.594Z,986.55
2023-01-03T00:18:03.306Z,986.57
2023-01-03T00:19:03.324Z,986.44
2023-01-03T00:20:03.323Z,986.80
2023-01-03T00:21:03.291Z,986.60
2023-01-03T00:22:03.201Z,986.53
2023-01-03T00:23:03.164Z,986.66
2023-01-03T00:24:03.189Z,986.53
2023-01-03T00:25:03.112Z,986.47
2023-01-03T00:26:03.009Z,986.53
2023-01-03T00:27:03.094Z,986.60
2023-01-03T00:28:03.122Z,986.66
2023-01-03T00:29:03.107Z,986.63
2023-01-03T00:30:03.056Z,986.69
2023-01-03T00:31:03.111Z,986.56
2023-01-03T00:32:02.991Z,986.58
2023-01-03T00:33:03.900Z,986.72
2023-01-03T00:34:03.841Z,986.63
2023-01-03T00:35:05.884Z,986.66
2023-01-03T00:36:03.811Z,986.75
2023-01-03T00:37:03.796Z,986.64
2023-01-03T00:38:03.656Z,986.64
2023-01-03T00:39:03.705Z,986.56
2023-01-03T00:40:03.686Z,986.56
2023-01-03T00:41:03.675Z,986.50
2023-01-03T00:42:03.708Z,986.61
2023-01-03T00:43:03.621Z,986.61
2023-01-03T00:44:03.614Z,986.53
2023-01-03T00:45:03.564Z,986.72
2023-01-03T00:46:03.511Z,986.53
2023-01-03T00:47:03.415Z,986.53
2023-01-03T00:48:03.505Z,986.64
2023-01-03T00:49:03.441Z,986.61
2023-01-03T00:50:03.347Z,986.67
2023-01-03T00:51:03.403Z,986.56
2023-01-03T00:52:03.457Z,986.61
2023-01-03T00:53:03.433Z,986.61
2023-01-03T00:54:03.481Z,986.69
2023-01-03T00:55:03.718Z,986.53
2023-01-03T00:56:03.699Z,986.64
2023-01-03T00:57:03.111Z,986.58
2023-01-03T00:58:03.011Z,986.64
2023-01-03T00:59:03.071Z,986.64
2023-01-03T01:00:02.986Z,986.72
2023-01-03T01:01:03.125Z,986.78
2023-01-03T01:02:03.431Z,986.84
2023-01-03T01:03:03.391Z,986.78
2023-01-03T01:04:03.203Z,986.67
2023-01-03T01:05:03.081Z,986.72
2023-01-03T01:06:02.949Z,986.69
2023-01-03T01:07:03.065Z,986.86
2023-01-03T01:08:02.957Z,986.86
2023-01-03T01:09:03.867Z,986.72
2023-01-03T01:10:03.146Z,986.89
2023-01-03T01:11:03.185Z,986.86
2023-01-03T01:12:03.113Z,986.95
2023-01-03T01:13:03.108Z,986.95
2023-01-03T01:14:03.082Z,986.84
2023-01-03T01:15:02.978Z,986.86
2023-01-03T01:16:03.056Z,987.12
2023-01-03T01:17:03.076Z,986.92
2023-01-03T01:18:03.078Z,986.98
2023-01-03T01:19:02.999Z,986.92
2023-01-03T01:20:02.989Z,987.03
2023-01-03T01:21:03.893Z,987.01
2023-01-03T01:22:03.008Z,986.89
2023-01-03T01:23:02.905Z,986.86
2023-01-03T01:24:03.936Z,986.86
2023-01-03T01:25:03.832Z,987.03
2023-01-03T01:26:03.849Z,987.01
2023-01-03T01:27:03.823Z,986.95
2023-01-03T01:28:03.790Z,987.01
2023-01-03T01:29:03.750Z,987.09
2023-01-03T01:30:03.698Z,987.04
2023-01-03T01:31:03.858Z,986.87
2023-01-03T01:32:03.222Z,986.98
2023-01-03T01:33:03.974Z,986.95
2023-01-03T01:34:03.545Z,986.92
2023-01-03T01:35:03.401Z,987.01
2023-01-03T01:36:03.343Z,987.04
2023-01-03T01:37:03.407Z,986.95
2023-01-03T01:38:03.271Z,986.98
2023-01-03T01:39:03.611Z,987.18
2023-01-03T01:40:03.722Z,987.04
2023-01-03T01:41:03.998Z,987.04
2023-01-03T01:42:03.783Z,987.04
2023-01-03T01:43:03.726Z,987.12
2023-01-03T01:44:03.829Z,987.15
2023-01-03T01:45:03.690Z,987.24
2023-01-03T01:46:03.813Z,987.15
2023-01-03T01:47:03.681Z,987.15
2023-01-03T01:48:03.678Z,987.24
2023-01-03T01:49:03.650Z,987.27
2023-01-03T01:50:03.781Z,987.38
2023-01-03T01:51:03.741Z,987.27
2023-01-03T01:52:03.880Z,987.16
2023-01-03T01:53:03.572Z,987.33
2023-01-03T01:54:03.424Z,987.30
2023-01-03T01:55:03.346Z,987.21
2023-01-03T01:56:03.419Z,987.36
2023-01-03T01:57:03.472Z,987.30
2023-01-03T01:58:03.405Z,987.36
2023-01-03T01:59:03.356Z,987.41
2023-01-03T02:00:03.438Z,987.47
2023-01-03T02:01:03.326Z,987.39
2023-01-03T02:02:03.648Z,987.42
2023-01-03T02:03:03.407Z,987.44
2023-01-03T02:04:03.264Z,987.44
2023-01-03T02:05:03.291Z,987.56
2023-01-03T02:06:03.221Z,987.53
2023-01-03T02:07:03.248Z,987.56
2023-01-03T02:08:03.328Z,987.59
2023-01-03T02:09:03.316Z,987.59
2023-01-03T02:10:03.140Z,987.59
2023-01-03T02:11:03.184Z,987.59
2023-01-03T02:12:03.118Z,987.73
2023-01-03T02:13:03.067Z,987.76
2023-01-03T02:14:03.714Z,987.76
2023-01-03T02:15:03.743Z,987.70
2023-01-03T02:16:04.022Z,987.68
2023-01-03T02:17:03.902Z,987.68
2023-01-03T02:18:03.712Z,987.71
2023-01-03T02:19:03.777Z,987.71
2023-01-03T02:20:03.830Z,987.82
2023-01-03T02:21:03.722Z,987.79
2023-01-03T02:22:03.638Z,987.74
2023-01-03T02:23:03.653Z,987.88
2023-01-03T02:24:03.609Z,987.93
2023-01-03T02:25:03.666Z,987.93
2023-01-03T02:26:03.598Z,987.82
2023-01-03T02:27:03.682Z,987.88
2023-01-03T02:28:03.582Z,987.93
2023-01-03T02:29:03.596Z,987.99
2023-01-03T02:30:03.608Z,987.80
2023-01-03T02:31:03.640Z,987.85
2023-01-03T02:32:03.499Z,987.83
2023-01-03T02:33:03.520Z,987.83
2023-01-03T02:34:03.499Z,987.96
2023-01-03T02:35:03.471Z,987.77
2023-01-03T02:36:03.476Z,987.86
2023-01-03T02:37:03.576Z,987.86
2023-01-03T02:38:03.570Z,987.91
2023-01-03T02:39:03.591Z,987.80
2023-01-03T02:40:03.487Z,987.91
2023-01-03T02:41:03.518Z,987.86
2023-01-03T02:42:03.498Z,987.86
2023-01-03T02:43:03.477Z,987.91
2023-01-03T02:44:04.208Z,987.91
2023-01-03T02:45:03.261Z,987.80
2023-01-03T02:46:03.347Z,987.78
2023-01-03T02:47:03.434Z,987.83
2023-01-03T02:48:03.317Z,987.83
2023-01-03T02:49:03.275Z,987.97
2023-01-03T02:50:03.267Z,987.86
2023-01-03T02:51:03.147Z,987.86
2023-01-03T02:52:03.116Z,987.84
2023-01-03T02:53:03.087Z,987.97
2023-01-03T02:54:03.000Z,987.91
2023-01-03T02:55:03.022Z,987.87
2023-01-03T02:56:03.264Z,987.92
2023-01-03T02:57:03.760Z,987.97
2023-01-03T02:58:03.359Z,987.84
2023-01-03T02:59:03.330Z,988.00
2023-01-03T03:00:03.469Z,987.87
2023-01-03T03:01:03.387Z,988.00
2023-01-03T03:02:03.522Z,987.92
2023-01-03T03:03:03.491Z,988.00
2023-01-03T03:04:03.160Z,988.00
2023-01-03T03:05:03.152Z,988.03
2023-01-03T03:06:03.223Z,988.03
2023-01-03T03:07:03.137Z,988.03
2023-01-03T03:08:03.090Z,988.03
2023-01-03T03:09:03.162Z,988.12
2023-01-03T03:10:03.584Z,988.20
2023-01-03T03:11:03.532Z,988.04
2023-01-03T03:12:03.446Z,988.15
2023-01-03T03:13:03.353Z,988.01
2023-01-03T03:14:03.222Z,988.21
2023-01-03T03:15:03.148Z,988.12
2023-01-03T03:16:03.461Z,988.09
2023-01-03T03:17:03.284Z,988.01
2023-01-03T03:18:03.186Z,987.95
2023-01-03T03:19:03.106Z,988.07
2023-01-03T03:20:07.216Z,988.10
2023-01-03T03:21:02.969Z,988.07
2023-01-03T03:22:03.787Z,988.07
2023-01-03T03:23:03.831Z,988.10
2023-01-03T03:24:03.804Z,988.07
2023-01-03T03:25:03.774Z,988.12
2023-01-03T03:26:03.694Z,987.95
2023-01-03T03:27:03.496Z,988.01
2023-01-03T03:28:03.570Z,988.12
2023-01-03T03:29:03.503Z,988.07
2023-01-03T03:30:03.402Z,988.01
2023-01-03T03:31:03.434Z,988.01
2023-01-03T03:32:03.299Z,987.95
2023-01-03T03:33:03.172Z,987.95
2023-01-03T03:34:03.226Z,988.12
2023-01-03T03:35:03.185Z,988.06
2023-01-03T03:36:03.021Z,987.79
2023-01-03T03:37:02.947Z,987.98
2023-01-03T03:38:02.991Z,987.95
2023-01-03T03:39:03.048Z,988.03
2023-01-03T03:40:02.951Z,987.98
2023-01-03T03:41:03.586Z,987.87
2023-01-03T03:42:03.498Z,988.03
2023-01-03T03:43:03.430Z,987.92
2023-01-03T03:44:03.302Z,988.06
2023-01-03T03:45:03.513Z,988.00
2023-01-03T03:46:03.304Z,988.03
2023-01-03T03:47:05.006Z,988.00
2023-01-03T03:48:03.188Z,988.03
2023-01-03T03:49:03.177Z,988.03
2023-01-03T03:50:03.079Z,988.00
2023-01-03T03:51:02.996Z,988.00
2023-01-03T03:52:03.040Z,988.06
2023-01-03T03:53:02.989Z,987.95
2023-01-03T03:54:09.015Z,987.97
2023-01-03T03:55:03.822Z,988.09
2023-01-03T03:56:03.765Z,988.06
2023-01-03T03:57:03.677Z,988.03
2023-01-03T03:58:03.644Z,988.11
2023-01-03T03:59:03.587Z,988.11
2023-01-03T04:00:03.435Z,988.00
2023-01-03T04:01:03.358Z,987.97
2023-01-03T04:02:03.544Z,988.00
2023-01-03T04:03:03.780Z,988.06
2023-01-03T04:04:03.462Z,987.97
2023-01-03T04:05:03.167Z,988.09
2023-01-03T04:06:03.130Z,987.97
2023-01-03T04:07:02.983Z,988.23
2023-01-03T04:08:03.051Z,988.09
2023-01-03T04:09:03.863Z,988.09
2023-01-03T04:10:03.812Z,988.14
2023-01-03T04:11:03.840Z,988.08
2023-01-03T04:12:03.876Z,988.08
2023-01-03T04:13:03.857Z,988.11
2023-01-03T04:14:03.937Z,988.08
2023-01-03T04:15:03.919Z,988.03
2023-01-03T04:16:04.010Z,988.11
2023-01-03T04:17:03.805Z,988.20
2023-01-03T04:18:03.848Z,988.14
2023-01-03T04:19:03.788Z,988.08
2023-01-03T04:20:03.760Z,988.23
2023-01-03T04:21:03.624Z,988.06
2023-01-03T04:22:03.522Z,988.11
2023-01-03T04:23:03.526Z,988.11
2023-01-03T04:24:03.333Z,988.03
2023-01-03T04:25:03.342Z,988.17
2023-01-03T04:26:03.292Z,988.14
2023-01-03T04:27:03.152Z,988.17
2023-01-03T04:28:03.101Z,988.03
2023-01-03T04:29:03.144Z,988.17
2023-01-03T04:30:02.935Z,988.17
2023-01-03T04:31:03.681Z,988.06
2023-01-03T04:32:03.743Z,988.20
2023-01-03T04:33:03.434Z,988.17
2023-01-03T04:34:03.529Z,988.33
2023-01-03T04:35:03.372Z,988.20
2023-01-03T04:36:03.299Z,988.20
2023-01-03T04:37:03.374Z,988.20
2023-01-03T04:38:03.288Z,988.14
2023-01-03T04:39:03.225Z,988.20
2023-01-03T04:40:03.287Z,988.11
2023-01-03T04:41:03.088Z,988.23
2023-01-03T04:42:03.194Z,988.27
2023-01-03T04:43:03.088Z,988.25
2023-01-03T04:44:03.120Z,988.30
2023-01-03T04:45:02.956Z,988.17
2023-01-03T04:46:03.025Z,988.17
2023-01-03T04:47:03.906Z,988.22
2023-01-03T04:48:03.747Z,988.11
2023-01-03T04:49:03.660Z,988.22
2023-01-03T04:50:03.661Z,988.22
2023-01-03T04:51:03.494Z,988.38
2023-01-03T04:52:03.460Z,988.17
2023-01-03T04:53:03.470Z,988.11
2023-01-03T04:54:03.362Z,988.25
2023-01-03T04:55:03.184Z,988.27
2023-01-03T04:56:03.084Z,988.11
2023-01-03T04:57:03.019Z,988.22
2023-01-03T04:58:03.059Z,988.22
2023-01-03T04:59:02.980Z,988.14
2023-01-03T05:00:03.829Z,988.27
2023-01-03T05:01:04.065Z,988.27
2023-01-03T05:02:04.265Z,988.30
2023-01-03T05:03:03.838Z,988.33
2023-01-03T05:04:03.904Z,988.30
2023-01-03T05:05:03.871Z,988.35
2023-01-03T05:06:03.822Z,988.41
2023-01-03T05:07:03.699Z,988.44
2023-01-03T05:08:03.628Z,988.44
2023-01-03T05:09:03.540Z,988.61
2023-01-03T05:10:03.474Z,988.58
2023-01-03T05:11:03.433Z,988.44
2023-01-03T05:12:03.379Z,988.47
2023-01-03T05:13:03.232Z,988.53
2023-01-03T05:14:03.204Z,988.55
2023-01-03T05:15:03.121Z,988.55
2023-01-03T05:16:02.997Z,988.64
2023-01-03T05:17:04.060Z,988.53
2023-01-03T05:18:03.763Z,988.64
2023-01-03T05:19:03.696Z,988.61
2023-01-03T05:20:03.657Z,988.38
2023-01-03T05:21:03.696Z,988.55
2023-01-03T05:22:03.583Z,988.55
2023-01-03T05:23:03.416Z,988.58
2023-01-03T05:24:03.418Z,988.58
2023-01-03T05:25:03.833Z,988.64
2023-01-03T05:26:03.502Z,988.70
2023-01-03T05:27:03.469Z,988.50
2023-01-03T05:28:03.529Z,988.55
2023-01-03T05:29:03.565Z,988.67
2023-01-03T05:30:03.567Z,988.70
2023-01-03T05:31:03.546Z,988.47
2023-01-03T05:32:04.112Z,988.67
2023-01-03T05:33:03.549Z,988.55
2023-01-03T05:34:03.685Z,988.81
2023-01-03T05:35:03.272Z,988.53
2023-01-03T05:36:03.835Z,988.72
2023-01-03T05:37:03.172Z,988.61
2023-01-03T05:38:03.146Z,988.78
2023-01-03T05:39:03.940Z,988.67
2023-01-03T05:40:03.074Z,988.72
2023-01-03T05:41:02.984Z,988.75
2023-01-03T05:42:02.968Z,988.87
2023-01-03T05:43:03.809Z,988.73
2023-01-03T05:44:03.848Z,988.67
2023-01-03T05:45:03.732Z,988.67
2023-01-03T05:46:03.964Z,988.73
2023-01-03T05:47:03.593Z,988.70
2023-01-03T05:48:03.921Z,988.64
2023-01-03T05:49:03.868Z,988.70
2023-01-03T05:50:03.741Z,988.70
2023-01-03T05:51:03.768Z,988.81
2023-01-03T05:52:03.634Z,988.87
2023-01-03T05:53:03.716Z,988.95
2023-01-03T05:54:03.710Z,988.81
2023-01-03T05:55:03.690Z,988.90
2023-01-03T05:56:03.623Z,988.81
2023-01-03T05:57:03.511Z,988.67
2023-01-03T05:58:03.487Z,988.61
2023-01-03T05:59:03.340Z,988.76
2023-01-03T06:00:03.390Z,988.67
2023-01-03T06:01:03.272Z,988.67
2023-01-03T06:02:03.535Z,988.73
2023-01-03T06:03:03.384Z,988.73
2023-01-03T06:04:03.314Z,988.79
2023-01-03T06:05:03.233Z,988.76
2023-01-03T06:06:03.072Z,988.84
2023-01-03T06:07:02.987Z,988.70
2023-01-03T06:08:03.005Z,988.93
2023-01-03T06:09:03.860Z,988.96
2023-01-03T06:10:03.834Z,988.90
2023-01-03T06:11:03.927Z,988.96
2023-01-03T06:12:03.647Z,988.90
2023-01-03T06:13:03.679Z,988.87
2023-01-03T06:14:03.549Z,988.87
2023-01-03T06:15:03.363Z,988.90
2023-01-03T06:16:03.450Z,988.96
2023-01-03T06:17:03.653Z,988.99
2023-01-03T06:18:03.849Z,988.96
2023-01-03T06:19:03.407Z,989.04
2023-01-03T06:20:03.350Z,988.99
2023-01-03T06:21:03.295Z,988.90
2023-01-03T06:22:11.228Z,989.02
2023-01-03T06:23:03.207Z,988.96
2023-01-03T06:24:03.342Z,988.96
2023-01-03T06:25:03.168Z,988.96
2023-01-03T06:26:03.153Z,988.99
2023-01-03T06:27:03.053Z,988.91
2023-01-03T06:28:03.004Z,989.05
2023-01-03T06:29:03.889Z,989.00
2023-01-03T06:30:03.831Z,988.94
2023-01-03T06:31:03.910Z,988.91
2023-01-03T06:32:10.010Z,989.03
2023-01-03T06:33:02.950Z,988.94
2023-01-03T06:34:03.844Z,989.03
2023-01-03T06:35:03.073Z,988.94
2023-01-03T06:36:02.908Z,988.97
2023-01-03T06:37:03.877Z,989.14
2023-01-03T06:38:03.841Z,988.97
2023-01-03T06:39:03.725Z,989.06
2023-01-03T06:40:03.710Z,988.92
2023-01-03T06:41:03.564Z,989.06
2023-01-03T06:42:03.451Z,989.11
2023-01-03T06:43:03.533Z,989.06
2023-01-03T06:44:03.381Z,989.03
2023-01-03T06:45:03.400Z,989.00
2023-01-03T06:46:03.633Z,988.86
2023-01-03T06:47:03.369Z,989.06
2023-01-03T06:48:03.366Z,989.06
2023-01-03T06:49:03.295Z,989.00
2023-01-03T06:50:03.161Z,988.95
2023-01-03T06:51:03.155Z,989.09
2023-01-03T06:52:03.021Z,988.95
2023-01-03T06:53:02.989Z,989.12
2023-01-03T06:54:03.888Z,989.09
2023-01-03T06:55:03.869Z,989.06
2023-01-03T06:56:03.679Z,989.01
2023-01-03T06:57:03.722Z,989.01
2023-01-03T06:58:03.636Z,989.18
2023-01-03T06:59:03.517Z,989.18
2023-01-03T07:00:03.732Z,989.21
2023-01-03T07:01:03.744Z,989.15
2023-01-03T07:02:03.796Z,989.29
2023-01-03T07:03:11.779Z,989.18
2023-01-03T07:04:03.484Z,989.27
2023-01-03T07:05:03.339Z,989.18
2023-01-03T07:06:03.196Z,989.32
2023-01-03T07:07:03.327Z,989.30
2023-01-03T07:08:03.219Z,989.30
2023-01-03T07:09:03.255Z,989.24
2023-01-03T07:10:03.108Z,989.21
2023-01-03T07:11:03.026Z,989.18
2023-01-03T07:12:03.103Z,989.33
2023-01-03T07:13:02.990Z,989.33
2023-01-03T07:14:02.924Z,989.44
2023-01-03T07:15:03.926Z,989.35
2023-01-03T07:16:03.848Z,989.27
2023-01-03T07:17:03.708Z,989.38
2023-01-03T07:18:03.668Z,989.47
2023-01-03T07:19:03.702Z,989.41
2023-01-03T07:20:03.581Z,989.38
2023-01-03T07:21:03.523Z,989.61
2023-01-03T07:22:03.416Z,989.47
2023-01-03T07:23:03.479Z,989.47
2023-01-03T07:24:03.443Z,989.33
2023-01-03T07:25:03.722Z,989.56
2023-01-03T07:26:03.771Z,989.67
2023-01-03T07:27:03.866Z,989.50
2023-01-03T07:28:10.167Z,989.45
2023-01-03T07:29:03.528Z,989.50
2023-01-03T07:30:03.527Z,989.48
2023-01-03T07:31:03.543Z,989.53
2023-01-03T07:32:03.347Z,989.50
2023-01-03T07:33:03.308Z,989.59
2023-01-03T07:34:03.786Z,989.56
2023-01-03T07:35:03.752Z,989.53
2023-01-03T07:36:11.954Z,989.69
2023-01-03T07:37:03.973Z,989.65
2023-01-03T07:38:03.721Z,989.53
2023-01-03T07:39:03.866Z,989.59
2023-01-03T07:40:03.689Z,989.59
2023-01-03T07:41:03.544Z,989.54
2023-01-03T07:42:03.443Z,989.54
2023-01-03T07:43:03.366Z,989.59
2023-01-03T07:44:03.310Z,989.68
2023-01-03T07:45:03.277Z,989.68
2023-01-03T07:46:03.319Z,989.68
2023-01-03T07:47:03.276Z,989.56
2023-01-03T07:48:03.176Z,989.69
2023-01-03T07:49:11.770Z,989.68
2023-01-03T07:50:03.007Z,989.65
2023-01-03T07:51:03.067Z,989.72
2023-01-03T07:52:04.022Z,989.65
2023-01-03T07:53:03.014Z,989.65
2023-01-03T07:54:03.132Z,989.75
2023-01-03T07:55:03.016Z,989.59
2023-01-03T07:56:13.539Z,989.65
2023-01-03T07:57:02.968Z,989.69
2023-01-03T07:58:03.999Z,989.72
2023-01-03T07:59:03.807Z,989.70
2023-01-03T08:00:03.796Z,989.65
2023-01-03T08:01:03.768Z,989.75
2023-01-03T08:02:03.852Z,989.78
2023-01-03T08:03:10.719Z,989.78
2023-01-03T08:04:03.730Z,989.81
2023-01-03T08:05:03.733Z,989.81
2023-01-03T08:06:03.515Z,989.84
2023-01-03T08:07:03.373Z,989.89
2023-01-03T08:08:03.310Z,989.87
2023-01-03T08:09:06.750Z,989.78
2023-01-03T08:10:03.270Z,989.78
2023-01-03T08:11:03.262Z,989.87
2023-01-03T08:12:03.754Z,989.98
2023-01-03T08:13:03.825Z,990.04
2023-01-03T08:14:03.847Z,989.90
2023-01-03T08:15:03.737Z,989.90
2023-01-03T08:16:03.871Z,990.04
2023-01-03T08:17:03.723Z,989.89
2023-01-03T08:18:03.689Z,989.89
2023-01-03T08:19:03.501Z,990.01
2023-01-03T08:20:03.442Z,989.81
2023-01-03T08:21:03.450Z,989.84
2023-01-03T08:22:03.425Z,989.92
2023-01-03T08:23:03.347Z,990.01
2023-01-03T08:24:03.316Z,989.98
2023-01-03T08:25:03.247Z,989.95
2023-01-03T08:26:03.198Z,990.01
2023-01-03T08:27:03.280Z,989.98
2023-01-03T08:28:03.169Z,989.92
2023-01-03T08:29:03.112Z,990.09
2023-01-03T08:30:03.202Z,990.09
2023-01-03T08:31:03.037Z,990.03
2023-01-03T08:32:03.012Z,990.09
2023-01-03T08:33:03.966Z,990.15
2023-01-03T08:34:11.990Z,990.03
2023-01-03T08:35:03.812Z,990.20
2023-01-03T08:36:03.820Z,990.20
2023-01-03T08:37:03.720Z,990.09
2023-01-03T08:38:03.691Z,990.17
2023-01-03T08:39:03.511Z,990.31
2023-01-03T08:40:03.544Z,990.20
2023-01-03T08:41:03.528Z,990.06
2023-01-03T08:42:03.425Z,990.06
2023-01-03T08:43:03.356Z,990.03
2023-01-03T08:44:03.254Z,990.15
2023-01-03T08:45:03.255Z,990.12
2023-01-03T08:46:03.172Z,989.95
2023-01-03T08:47:03.130Z,990.06
2023-01-03T08:48:03.081Z,989.98
2023-01-03T08:49:02.914Z,990.03
2023-01-03T08:50:02.943Z,990.12
2023-01-03T08:51:03.973Z,990.06
2023-01-03T08:52:03.396Z,989.95
2023-01-03T08:53:03.315Z,990.12
2023-01-03T08:54:03.207Z,990.09
2023-01-03T08:55:03.118Z,990.17
2023-01-03T08:56:03.079Z,990.17
2023-01-03T08:57:02.935Z,990.06
2023-01-03T08:58:02.905Z,990.03
2023-01-03T08:59:03.029Z,989.92
2023-01-03T09:00:03.974Z,990.11
2023-01-03T09:01:03.809Z,989.94
2023-01-03T09:02:04.272Z,990.08
2023-01-03T09:03:03.600Z,989.97
2023-01-03T09:04:03.266Z,990.06
2023-01-03T09:05:02.964Z,990.05
2023-01-03T09:06:03.906Z,990.11
2023-01-03T09:07:03.804Z,990.17
2023-01-03T09:08:03.690Z,989.97
2023-01-03T09:09:03.641Z,990.28
2023-01-03T09:10:03.497Z,990.08
2023-01-03T09:11:03.481Z,990.08
2023-01-03T09:12:03.475Z,990.11
2023-01-03T09:13:03.393Z,990.08
2023-01-03T09:14:03.356Z,990.14
2023-01-03T09:15:03.263Z,990.00
2023-01-03T09:16:03.417Z,990.14
2023-01-03T09:17:03.110Z,990.05
2023-01-03T09:18:03.094Z,990.28
2023-01-03T09:19:03.236Z,990.08
2023-01-03T09:20:03.607Z,990.11
2023-01-03T09:21:03.492Z,990.08
2023-01-03T09:22:03.391Z,990.22
2023-01-03T09:23:03.284Z,990.19
2023-01-03T09:24:03.673Z,990.27
2023-01-03T09:25:03.720Z,990.11
2023-01-03T09:26:03.556Z,990.30
2023-01-03T09:27:03.077Z,990.05
2023-01-03T09:28:02.999Z,990.10
2023-01-03T09:29:03.881Z,990.05
2023-01-03T09:30:03.849Z,990.16
2023-01-03T09:31:03.072Z,990.19
2023-01-03T09:32:03.331Z,990.27
2023-01-03T09:33:03.032Z,990.21
2023-01-03T09:34:02.875Z,990.24
2023-01-03T09:35:02.886Z,990.21
2023-01-03T09:36:03.838Z,990.07
2023-01-03T09:37:03.081Z,990.18
2023-01-03T09:38:03.103Z,990.18
2023-01-03T09:39:03.003Z,990.07
2023-01-03T09:40:03.905Z,990.18
2023-01-03T09:41:03.892Z,990.18
2023-01-03T09:42:03.748Z,990.21
2023-01-03T09:43:03.753Z,990.15
2023-01-03T09:44:03.619Z,990.24
2023-01-03T09:45:03.524Z,990.12
2023-01-03T09:46:03.516Z,990.18
2023-01-03T09:47:03.529Z,990.24
2023-01-03T09:48:03.415Z,990.21
2023-01-03T09:49:03.342Z,990.04
2023-01-03T09:50:50.508Z,990.15
2023-01-03T09:51:29.383Z,990.18
2023-01-03T09:52:03.849Z,990.18
2023-01-03T09:53:03.862Z,990.20
2023-01-03T09:54:03.688Z,990.12
2023-01-03T09:55:03.708Z,990.20
2023-01-03T09:56:03.621Z,990.26
2023-01-03T09:57:03.603Z,990.23
2023-01-03T09:58:03.540Z,990.12
2023-01-03T09:59:03.435Z,990.17
2023-01-03T10:00:03.489Z,990.17
2023-01-03T10:01:03.509Z,990.20
2023-01-03T10:02:03.603Z,990.12
2023-01-03T10:03:03.474Z,990.20
2023-01-03T10:04:03.207Z,990.28
2023-01-03T10:05:03.253Z,990.20
2023-01-03T10:06:03.250Z,990.37
2023-01-03T10:07:03.266Z,990.37
2023-01-03T10:08:03.179Z,990.31
2023-01-03T10:09:03.314Z,990.25
2023-01-03T10:10:03.183Z,990.14
2023-01-03T10:11:02.957Z,990.22
2023-01-03T10:12:03.877Z,990.22
2023-01-03T10:13:03.868Z,990.31
2023-01-03T10:14:03.735Z,990.33
2023-01-03T10:15:03.773Z,990.19
2023-01-03T10:16:03.819Z,990.19
2023-01-03T10:17:03.937Z,990.39
2023-01-03T10:18:03.814Z,990.25
2023-01-03T10:19:03.820Z,990.13
2023-01-03T10:20:03.660Z,990.11
2023-01-03T10:21:03.615Z,990.19
2023-01-03T10:22:03.617Z,990.16
2023-01-03T10:23:03.492Z,990.10
2023-01-03T10:24:03.406Z,990.22
2023-01-03T10:25:03.419Z,990.05
2023-01-03T10:26:03.284Z,990.05
2023-01-03T10:27:03.322Z,990.24
2023-01-03T10:28:03.415Z,990.16
2023-01-03T10:29:03.279Z,990.10
2023-01-03T10:30:03.214Z,990.24
2023-01-03T10:31:08.551Z,990.13
2023-01-03T10:32:03.264Z,990.07
2023-01-03T10:33:03.053Z,990.10
2023-01-03T10:34:03.013Z,990.15
2023-01-03T10:35:03.108Z,989.98
2023-01-03T10:36:03.058Z,990.07
2023-01-03T10:37:02.945Z,990.01
2023-01-03T10:38:03.906Z,990.01
2023-01-03T10:39:03.835Z,990.12
2023-01-03T10:40:03.750Z,990.09
2023-01-03T10:41:03.725Z,990.20
2023-01-03T10:42:03.633Z,990.18
2023-01-03T10:43:03.567Z,990.09
2023-01-03T10:44:03.667Z,990.06
2023-01-03T10:45:03.540Z,990.12
2023-01-03T10:46:03.575Z,990.20
2023-01-03T10:47:03.366Z,990.03
2023-01-03T10:48:03.336Z,990.06
2023-01-03T10:49:29.969Z,990.23
2023-01-03T10:50:03.106Z,990.17
2023-01-03T10:51:03.181Z,990.20
2023-01-03T10:52:03.154Z,990.23
2023-01-03T10:53:03.162Z,990.20
2023-01-03T10:54:03.101Z,990.03
2023-01-03T10:55:03.019Z,990.37
2023-01-03T10:56:03.365Z,990.20
2023-01-03T10:57:03.368Z,990.28
2023-01-03T10:58:03.362Z,990.34
2023-01-03T10:59:03.262Z,990.22
2023-01-03T11:00:05.619Z,990.28
2023-01-03T11:01:03.081Z,990.22
2023-01-03T11:02:03.587Z,990.19
2023-01-03T11:03:04.155Z,990.42
2023-01-03T11:04:03.971Z,990.19
2023-01-03T11:05:03.709Z,990.31
2023-01-03T11:06:03.594Z,990.31
2023-01-03T11:07:03.919Z,990.47
2023-01-03T11:08:03.571Z,990.47
2023-01-03T11:09:03.483Z,990.39
2023-01-03T11:10:03.445Z,990.30
2023-01-03T11:11:03.338Z,990.47
2023-01-03T11:12:03.199Z,990.52
2023-01-03T11:13:03.197Z,990.47
2023-01-03T11:14:03.313Z,990.55
2023-01-03T11:15:03.427Z,990.49
2023-01-03T11:16:03.197Z,990.58
2023-01-03T11:17:03.296Z,990.52
2023-01-03T11:18:03.136Z,990.61
2023-01-03T11:19:03.070Z,990.58
2023-01-03T11:20:02.897Z,990.60
2023-01-03T11:21:03.922Z,990.55
2023-01-03T11:22:02.880Z,990.49
2023-01-03T11:23:02.963Z,990.55
2023-01-03T11:24:03.025Z,990.55
2023-01-03T11:25:02.918Z,990.55
2023-01-03T11:26:03.907Z,990.55
2023-01-03T11:27:03.779Z,990.49
2023-01-03T11:28:03.814Z,990.41
2023-01-03T11:29:03.840Z,990.57
2023-01-03T11:30:03.834Z,990.41
2023-01-03T11:31:03.620Z,990.63
2023-01-03T11:32:03.844Z,990.60
2023-01-03T11:33:03.636Z,990.66
2023-01-03T11:34:03.503Z,990.68
2023-01-03T11:35:25.712Z,990.54
2023-01-03T11:36:03.491Z,990.68
2023-01-03T11:37:03.353Z,990.60
2023-01-03T11:38:03.359Z,990.63
2023-01-03T11:39:03.425Z,990.74
2023-01-03T11:40:03.349Z,990.49
2023-01-03T11:41:03.224Z,990.68
2023-01-03T11:42:03.266Z,990.51
2023-01-03T11:43:03.167Z,990.74
2023-01-03T11:44:03.035Z,990.66
2023-01-03T11:45:03.035Z,990.65
2023-01-03T11:46:03.024Z,990.65
2023-01-03T11:47:02.981Z,990.54
2023-01-03T11:48:03.033Z,990.68
2023-01-03T11:49:03.122Z,990.57
2023-01-03T11:50:03.062Z,990.63
2023-01-03T11:51:03.051Z,990.65
2023-01-03T11:52:03.875Z,990.65
2023-01-03T11:53:03.889Z,990.54
2023-01-03T11:54:03.699Z,990.60
2023-01-03T11:55:03.623Z,990.65
2023-01-03T11:56:03.655Z,990.80
2023-01-03T11:57:03.580Z,990.77
2023-01-03T11:58:03.627Z,990.88
2023-01-03T11:59:03.673Z,990.77
2023-01-03T12:00:03.538Z,990.68
2023-01-03T12:01:03.434Z,990.88
2023-01-03T12:02:03.815Z,990.62
2023-01-03T12:03:03.712Z,990.79
2023-01-03T12:04:03.530Z,990.82
2023-01-03T12:05:03.435Z,990.71
2023-01-03T12:06:03.283Z,990.94
2023-01-03T12:07:47.373Z,990.91
2023-01-03T12:08:03.271Z,990.91
2023-01-03T12:09:03.260Z,990.93
2023-01-03T12:10:03.217Z,990.79
2023-01-03T12:11:03.437Z,990.74
2023-01-03T12:12:03.150Z,990.79
2023-01-03T12:13:03.193Z,990.71
2023-01-03T12:14:03.010Z,990.68
2023-01-03T12:15:02.956Z,990.71
2023-01-03T12:16:04.119Z,990.74
2023-01-03T12:17:03.891Z,990.88
2023-01-03T12:18:03.928Z,990.71
2023-01-03T12:19:12.421Z,990.79
2023-01-03T12:20:03.839Z,990.77
2023-01-03T12:21:03.760Z,990.71
2023-01-03T12:22:03.617Z,990.71
2023-01-03T12:23:03.671Z,990.85
2023-01-03T12:24:02.956Z,990.74
2023-01-03T12:25:06.217Z,990.79
2023-01-03T12:26:03.764Z,990.77
2023-01-03T12:27:03.713Z,990.94
2023-01-03T12:28:03.778Z,990.71